Flight Track Log - Related Links

Times and Time Zones

All times are in EDT time to prevent confusion due to time zone crossing. See the N328SR flight status page for this flight to view local times or setup timezone preferences in your user account.

Time Position Orientation Groundspeed Altitude Reporting Facility
EDT Latitude Longitude Course Direction KTS MPH feet Rate Location/Type
Fri 01:30:00 PM 44.1026 -72.9430 160° South  Level FlightAware Approximate
Fri 01:30:39 PM 44.2033 -73.0656 160° South 153 176 5,600  Level Boston Center
Fri 01:31:00 PM 44.0427 -72.9062 154° Southeast  Level FlightAware Approximate
Fri 01:31:39 PM 44.1825 -73.0539 158° South 159 183 6,000  Level Boston Center
Fri 01:32:00 PM 43.9836 -72.8668 154° Southeast  Level FlightAware Approximate
Fri 01:32:39 PM 44.1347 -73.0244 156° South 153 176 6,600  Level Boston Center
Fri 01:33:00 PM 43.9241 -72.8287 160° South  Level FlightAware Approximate
Fri 01:33:39 PM 44.0953 -72.9981 154° Southeast 153 176 7,200  Level Boston Center
Fri 01:34:00 PM 43.8625 -72.7979 160° South  Level FlightAware Approximate
Fri 01:34:39 PM 44.0558 -72.9744 157° South 158 182 7,700  Level Boston Center
Fri 01:35:00 PM 43.8008 -72.7670 160° South  Level FlightAware Approximate
Fri 01:35:39 PM 44.0228 -72.9539 156° South 150 173 8,500  Level Boston Center
Fri 01:36:39 PM 43.9853 -72.9306 156° South 150 173 9,300 800 Climbing Boston Center
Fri 01:37:39 PM 43.9478 -72.9100 158° South 150 173 10,100 727 Climbing Boston Center
Fri 01:38:51 PM 43.9125 -72.8867 155° Southeast 150 173 10,900 818 Climbing Boston Center
Fri 01:39:51 PM 43.8647 -72.8575 156° South 155 178 11,900 900 Climbing Boston Center
Fri 01:40:51 PM 43.8272 -72.8314 153° Southeast 154 177 12,700 750 Climbing Boston Center
Fri 01:41:51 PM 43.7897 -72.8111 159° South 154 177 13,400 750 Climbing Boston Center
Fri 01:42:51 PM 43.7567 -72.7878 153° Southeast 149 171 14,200 650 Climbing Boston Center
Fri 01:43:51 PM 43.7169 -72.7675 160° South 149 171 14,700 300 Climbing Boston Center
Fri 01:44:51 PM 43.6733 -72.7414 157° South 162 186 14,800 50 Climbing Boston Center
Fri 01:45:51 PM 43.6381 -72.7183 155° Southeast 162 186 14,800  Level Boston Center
Fri 01:46:51 PM 43.6006 -72.6925 153° Southeast 172 198 14,800  Level Boston Center
Fri 01:47:51 PM 43.5422 -72.6578 157° South 183 211 14,800  Level Boston Center
Fri 01:48:51 PM 43.4986 -72.6289 154° Southeast 183 211 14,800  Level Boston Center
Fri 01:49:51 PM 43.4528 -72.6031 158° South 183 211 14,800  Level Boston Center
Fri 01:50:51 PM 43.4047 -72.5772 159° South 183 211 14,800  Level Boston Center
Fri 01:51:51 PM 43.3589 -72.5458 154° Southeast 183 211 14,800  Level Boston Center
Fri 01:52:51 PM 43.3092 -72.5172 157° South 189 217 14,800  Level Boston Center
Fri 01:53:51 PM 43.2611 -72.4886 157° South 189 217 14,800  Level Boston Center
Fri 01:54:51 PM 43.2153 -72.4600 156° South 189 217 14,800 182 Level Boston Center
Fri 01:56:03 PM 43.1611 -72.4258 155° Southeast 189 217 15,200 227 Climbing Boston Center
Fri 01:57:03 PM 43.1172 -72.4031 159° South 179 206 15,300 50 Climbing Boston Center
Fri 01:58:03 PM 43.0672 -72.3975 175° South 174 200 15,300  Level Boston Center
Fri 01:59:03 PM 43.0172 -72.3861 171° South 179 206 15,300  Level Boston Center
Fri 02:00:03 PM 42.9672 -72.3747 171° South 184 212 15,300  Level Boston Center
Fri 02:01:03 PM 42.9278 -72.3692 174° South 184 212 15,300  Level Boston Center
Fri 02:02:03 PM 42.8672 -72.3550 170° South 184 212 15,300  Level Boston Center
Fri 02:03:03 PM 42.8172 -72.3467 173° South 184 212 15,300  Level Boston Center
Fri 02:04:03 PM 42.7692 -72.3356 170° South 184 212 15,300  Level Boston Center
Fri 02:05:03 PM 42.7172 -72.3269 173° South 184 212 15,300  Level Boston Center
Fri 02:06:03 PM 42.6672 -72.3186 173° South 184 212 15,300  Level Boston Center
Fri 02:07:03 PM 42.6192 -72.3075 170° South 184 212 15,300  Level Boston Center
Fri 02:08:03 PM 42.5692 -72.2936 168° South 184 212 15,300  Level Boston Center
Fri 02:09:03 PM 42.5192 -72.2853 173° South 184 212 15,300  Level Boston Center
Fri 02:10:03 PM 42.4628 -72.2711 169° South 184 212 15,300  Level Boston Center
Fri 02:11:03 PM 42.4169 -72.2628 172° South 184 212 15,300  Level Boston Center
Fri 02:12:15 PM 42.3628 -72.2519 172° South 184 212 15,300  Level Boston Center
Fri 02:13:15 PM 42.3128 -72.2436 173° South 184 212 15,300  Level Boston Center
Fri 02:14:15 PM 42.2564 -72.2325 172° South 184 212 15,300  Level Boston Center
Fri 02:15:16 PM 42.2167 -72.2242 171° South 184 212 15,300  Level Boston Center
Fri 02:16:15 PM 42.1564 -72.2133 172° South 184 212 15,300  Level Boston Center
Fri 02:17:15 PM 42.1000 -72.2022 172° South 184 212 15,300  Level Boston Center
Fri 02:18:15 PM 42.0561 -72.1911 169° South 184 212 15,300  Level Boston Center
Fri 02:19:15 PM 42.0000 -72.1831 174° South 184 212 15,300  Level Boston Center
Fri 02:20:15 PM 41.9542 -72.1694 168° South 184 212 15,300  Level Boston Center
Fri 02:21:15 PM 41.8978 -72.1583 172° South 184 212 15,300  Level Boston Center
Fri 02:22:15 PM 41.8519 -72.1503 173° South 184 212 15,300 -157 Level Boston Center
Fri 02:23:10 PM 41.8019 -72.1394 171° South 187 215 15,000 -532 Descending Boston Center
Fri 02:23:34 PM 41.7811 -72.1394 180° South 191 220 14,600 -987 Descending Boston Center
Fri 02:24:29 PM 41.7267 -72.1286 172° South 209 241 13,700 -1,138 Descending Boston Center
Fri 02:25:30 PM 41.6664 -72.1150 170° South 219 252 12,400 -1,574 Descending Boston Center
Fri 02:26:31 PM 41.6058 -72.1125 178° South 211 243 10,500 -1,967 Descending Boston Center
Fri 02:27:32 PM 41.5475 -72.0850 161° South 207 238 8,400 -2,033 Descending Boston Center
Fri 02:28:32 PM 41.4933 -72.0742 171° South 196 226 6,400 -2,231 Descending Boston Center
Fri 02:29:33 PM 41.4389 -72.0608 170° South 198 228 3,900 -2,262 Descending Boston Center
Fri 02:30:34 PM 41.3889 -72.0417 164° South 194 223 1,800 -1,672 Descending Boston Center
Fri 02:31:35 PM 41.3514 -72.0281 165° South 157 181 500 -738 Descending Boston Center
Fri 02:32:36 PM 41.3347 -72.0392 207° Southwest 144 166 300 -99 Descending Boston Center
Fri 02:33:36 PM 41.3347 -72.0392 48° Northeast 144 166 300  Level Boston Center
Fri 02:36:00 PM 41.3301 -72.0451 180° South  Level Estimated
Fri 02:43:00 PM 41.3301 -72.0451 180° South  Level Estimated
Fri 02:44:00 PM 41.3301 -72.0451 180° South  Level Estimated
Fri 02:45:00 PM 41.3301 -72.0451 180° South  Level Estimated
Fri 02:46:00 PM 41.3301 -72.0451 180° South  Level Estimated
Fri 02:47:00 PM 41.3301 -72.0451 180° South  Level Estimated
Fri 02:48:00 PM 41.3301 -72.0451 180° South  Level Estimated
Fri 02:49:00 PM 41.3301 -72.0451 180° South  Level Estimated

Login

Don't have an account? Register now (free) for customized features, flight alerts, and more!